Time;durP1;ratioP1;P1;durP2;ratioP2;P2;SDS_P1;SDS_P2;PMS_P1;PMS_P2;Temp;Humidity;BMP_temperature;BMP_pressure;BME280_temperature;BME280_humidity;BME280_pressure;Samples;Min_cycle;Max_cycle;Signal;HPM_P1;HPM_P2
2023/03/05 00:01:08;;;;;;;29.40;16.40;;;6.20;99.90;;;;;;4920275;29;20031;-73
2023/03/05 00:03:34;;;;;;;28.80;15.40;;;6.20;99.90;;;;;;4915462;29;20028;-72
2023/03/05 00:06:00;;;;;;;32.03;18.73;;;6.30;99.90;;;;;;4918203;29;20466;-72
2023/03/05 00:08:27;;;;;;;33.30;18.93;;;6.40;99.90;;;;;;4916893;29;20040;-72
2023/03/05 00:10:57;;;;;;;28.77;17.20;;;6.20;99.90;;;;;;4900919;29;20071;-72
2023/03/05 00:13:23;;;;;;;29.57;19.33;;;6.20;99.90;;;;;;4948505;29;20036;-72
2023/03/05 00:15:49;;;;;;;30.37;19.60;;;6.20;99.90;;;;;;4935319;28;20032;-72
2023/03/05 00:18:15;;;;;;;30.00;16.30;;;6.30;99.90;;;;;;4925508;29;20039;-72
2023/03/05 00:20:41;;;;;;;25.20;15.77;;;6.40;99.90;;;;;;4954885;29;20046;-72
2023/03/05 00:23:07;;;;;;;26.13;15.03;;;6.40;99.90;;;;;;4953473;29;20388;-73
2023/03/05 00:25:36;;;;;;;30.13;17.37;;;6.40;99.90;;;;;;4936333;29;20028;-72
2023/03/05 00:28:03;;;;;;;29.07;15.43;;;6.40;99.90;;;;;;4935527;29;20536;-72
2023/03/05 00:30:30;;;;;;;34.73;16.30;;;6.40;99.90;;;;;;4935263;28;20035;-72
2023/03/05 00:32:56;;;;;;;26.53;15.47;;;6.40;99.90;;;;;;4919477;29;20043;-71
2023/03/05 00:35:22;;;;;;;32.50;16.70;;;6.40;99.90;;;;;;4935803;29;20043;-72
2023/03/05 00:37:48;;;;;;;30.53;15.80;;;6.50;99.90;;;;;;4936461;29;20031;-72
2023/03/05 00:40:14;;;;;;;25.83;12.93;;;6.40;99.90;;;;;;4934241;29;20035;-72
2023/03/05 00:42:40;;;;;;;23.50;12.33;;;6.30;99.90;;;;;;4935254;28;20040;-72
2023/03/05 00:45:07;;;;;;;25.47;12.43;;;6.00;99.90;;;;;;4918494;28;20055;-72
2023/03/05 00:47:34;;;;;;;27.20;13.43;;;5.90;99.90;;;;;;4919569;29;20052;-72
2023/03/05 00:50:00;;;;;;;24.43;13.87;;;5.90;99.90;;;;;;4918831;29;20378;-72
2023/03/05 00:52:26;;;;;;;22.93;12.53;;;6.00;99.90;;;;;;4935171;29;20046;-72
2023/03/05 00:54:52;;;;;;;21.10;11.17;;;6.00;99.90;;;;;;4935063;29;20374;-72
2023/03/05 00:57:18;;;;;;;22.50;11.70;;;6.00;99.90;;;;;;4919098;29;20050;-72
2023/03/05 00:59:44;;;;;;;20.50;10.80;;;5.90;99.90;;;;;;4934107;29;20469;-72
2023/03/05 01:02:10;;;;;;;16.53;10.93;;;5.90;99.90;;;;;;4934272;28;20109;-72
2023/03/05 01:04:37;;;;;;;15.77;9.50;;;5.90;99.90;;;;;;4934730;29;20047;-72
2023/03/05 01:07:03;;;;;;;14.63;9.50;;;6.00;99.90;;;;;;4934887;29;20054;-72
2023/03/05 01:09:29;;;;;;;20.00;9.40;;;5.90;99.90;;;;;;4935656;29;20055;-72
2023/03/05 01:11:55;;;;;;;18.53;10.40;;;5.80;99.90;;;;;;4940865;29;20104;-72
2023/03/05 01:14:22;;;;;;;16.07;9.53;;;5.80;99.90;;;;;;4941694;29;20428;-72
2023/03/05 01:16:48;;;;;;;18.43;8.70;;;5.90;99.90;;;;;;4934352;28;20044;-72
2023/03/05 01:19:14;;;;;;;14.20;9.30;;;5.80;99.90;;;;;;4949704;29;20023;-72
2023/03/05 01:21:40;;;;;;;19.80;9.70;;;5.80;99.90;;;;;;4953710;29;20379;-72
2023/03/05 01:24:07;;;;;;;16.47;8.97;;;5.90;99.90;;;;;;4945238;29;20028;-73
2023/03/05 01:26:33;;;;;;;18.43;9.10;;;5.90;99.90;;;;;;4935664;29;20032;-72
2023/03/05 01:28:59;;;;;;;14.43;10.27;;;6.00;99.90;;;;;;4934393;29;20039;-72
2023/03/05 01:31:25;;;;;;;16.87;9.53;;;6.10;99.90;;;;;;4934126;28;20047;-72
2023/03/05 01:33:54;;;;;;;14.87;9.60;;;6.20;99.90;;;;;;4933520;29;20048;-72
2023/03/05 01:36:22;;;;;;;17.80;10.17;;;6.30;99.90;;;;;;4934344;29;20039;-72
2023/03/05 01:38:48;;;;;;;20.67;10.60;;;6.30;99.90;;;;;;4905203;29;20404;-72
2023/03/05 01:41:14;;;;;;;14.53;9.47;;;6.30;99.90;;;;;;4934265;29;20031;-72
2023/03/05 01:43:40;;;;;;;17.47;9.57;;;6.40;99.90;;;;;;4917737;29;20039;-72
2023/03/05 01:46:28;;;;;;;16.13;9.50;;;6.50;99.90;;;;;;4917893;28;20031;-72
2023/03/05 01:49:00;;;;;;;19.87;9.67;;;6.30;99.90;;;;;;4934805;29;20035;-72
2023/03/05 01:51:27;;;;;;;14.20;9.13;;;6.20;99.90;;;;;;4935341;29;20358;-72
2023/03/05 01:53:53;;;;;;;22.07;9.97;;;6.10;99.90;;;;;;4917413;29;20039;-72
2023/03/05 01:56:19;;;;;;;22.07;10.97;;;6.00;99.90;;;;;;4918316;29;20027;-72
2023/03/05 01:58:45;;;;;;;16.60;9.43;;;6.00;99.90;;;;;;4918175;29;20039;-72
2023/03/05 02:01:11;;;;;;;14.47;9.83;;;6.10;99.90;;;;;;4933776;28;20476;-73
2023/03/05 02:03:38;;;;;;;19.13;9.97;;;6.10;99.90;;;;;;4931490;29;20035;-72
2023/03/05 02:06:04;;;;;;;14.67;9.90;;;6.20;99.90;;;;;;4932940;29;20027;-72
2023/03/05 02:08:30;;;;;;;20.10;10.13;;;6.20;99.90;;;;;;4933405;29;20401;-72
2023/03/05 02:10:56;;;;;;;14.23;10.33;;;6.40;99.90;;;;;;4933005;29;20048;-72
2023/03/05 02:13:27;;;;;;;17.47;10.03;;;6.30;99.90;;;;;;4933624;29;20070;-72
2023/03/05 02:15:54;;;;;;;17.33;10.20;;;6.10;99.90;;;;;;4932736;29;20043;-72
2023/03/05 02:18:20;;;;;;;15.67;10.40;;;6.10;99.90;;;;;;4933814;29;20036;-72
2023/03/05 02:20:49;;;;;;;15.00;9.83;;;6.10;99.90;;;;;;4933218;29;20504;-73
2023/03/05 02:23:16;;;;;;;14.90;10.50;;;6.10;99.90;;;;;;4934119;29;20035;-72
2023/03/05 02:25:42;;;;;;;15.70;9.77;;;6.20;99.90;;;;;;4933158;29;20058;-72
2023/03/05 02:28:18;;;;;;;15.97;11.00;;;6.40;99.90;;;;;;4934470;29;20492;-73
2023/03/05 02:30:44;;;;;;;12.93;9.70;;;6.30;99.90;;;;;;4933441;28;20392;-72
2023/03/05 02:33:13;;;;;;;14.87;9.50;;;6.30;99.90;;;;;;4918355;29;20039;-72
2023/03/05 02:35:39;;;;;;;20.07;10.43;;;6.40;99.90;;;;;;4917250;29;20031;-73
2023/03/05 02:38:05;;;;;;;20.23;10.20;;;6.50;99.90;;;;;;4933681;29;20480;-72
2023/03/05 02:40:31;;;;;;;14.17;10.63;;;6.40;99.90;;;;;;4918261;29;20397;-72
2023/03/05 02:42:57;;;;;;;18.63;10.43;;;6.30;99.90;;;;;;4931927;29;20040;-72
2023/03/05 02:45:23;;;;;;;18.77;10.77;;;6.20;99.90;;;;;;4934184;28;20039;-72
2023/03/05 02:47:49;;;;;;;16.07;10.03;;;6.10;99.90;;;;;;4933381;29;20047;-72
2023/03/05 02:50:15;;;;;;;15.33;10.43;;;6.00;99.90;;;;;;4934916;29;20023;-72
2023/03/05 02:52:41;;;;;;;15.27;10.47;;;6.10;99.90;;;;;;4916553;29;20504;-72
2023/03/05 02:55:08;;;;;;;13.67;10.00;;;6.20;99.90;;;;;;4932645;29;20043;-72
2023/03/05 02:57:34;;;;;;;9.73;7.10;;;6.20;99.90;;;;;;4933934;29;20401;-72
2023/03/05 03:00:00;;;;;;;21.27;11.47;;;6.20;99.90;;;;;;4934537;29;20038;-72
2023/03/05 03:02:26;;;;;;;18.40;11.50;;;6.10;99.90;;;;;;4932572;28;20062;-72
2023/03/05 03:04:52;;;;;;;16.63;12.33;;;6.10;99.90;;;;;;4918581;29;20040;-72
2023/03/05 03:07:19;;;;;;;15.03;11.37;;;6.10;99.90;;;;;;4933135;29;20389;-72
2023/03/05 03:09:45;;;;;;;13.23;10.83;;;6.10;99.90;;;;;;4932722;29;20063;-72
2023/03/05 03:12:11;;;;;;;16.37;10.60;;;6.10;99.90;;;;;;4938278;29;20031;-72
2023/03/05 03:14:38;;;;;;;15.87;11.10;;;6.10;99.90;;;;;;4917431;29;20036;-72
2023/03/05 03:17:05;;;;;;;15.90;11.40;;;6.00;99.90;;;;;;4932301;28;20040;-72
2023/03/05 03:19:32;;;;;;;20.10;10.90;;;6.20;99.90;;;;;;4933539;29;20035;-72
2023/03/05 03:21:58;;;;;;;16.53;11.87;;;6.30;99.90;;;;;;4933125;29;20047;-73
2023/03/05 03:24:24;;;;;;;19.27;12.00;;;6.20;99.90;;;;;;4932113;29;20032;-72
2023/03/05 03:26:50;;;;;;;16.33;12.47;;;6.20;99.90;;;;;;4905907;29;20047;-72
2023/03/05 03:29:16;;;;;;;16.13;11.47;;;6.10;99.90;;;;;;4921187;29;20555;-72
2023/03/05 03:31:44;;;;;;;15.53;11.97;;;6.20;99.90;;;;;;4936867;28;20045;-72
2023/03/05 03:34:14;;;;;;;15.97;12.03;;;6.10;99.90;;;;;;4919819;29;20040;-72
2023/03/05 03:36:44;;;;;;;16.13;11.20;;;6.00;99.90;;;;;;4936401;29;20043;-72
2023/03/05 03:39:10;;;;;;;17.77;12.57;;;6.00;99.90;;;;;;4935444;29;20047;-72
2023/03/05 03:41:39;;;;;;;12.07;9.00;;;6.10;99.90;;;;;;4936569;29;20066;-72
2023/03/05 03:44:07;;;;;;;14.67;11.90;;;6.00;99.90;;;;;;4936559;29;20032;-72
2023/03/05 03:46:33;;;;;;;16.53;11.87;;;5.90;99.90;;;;;;4936891;28;20408;-72
2023/03/05 03:49:00;;;;;;;18.40;12.93;;;5.90;99.90;;;;;;4935491;29;20040;-73
2023/03/05 03:51:26;;;;;;;19.33;12.03;;;5.90;99.90;;;;;;4917601;29;20463;-72
2023/03/05 03:53:52;;;;;;;14.83;11.60;;;6.00;99.90;;;;;;4917174;29;20040;-72
2023/03/05 03:56:18;;;;;;;16.17;11.93;;;5.90;99.90;;;;;;4917182;29;20370;-72
2023/03/05 03:58:44;;;;;;;15.37;11.57;;;5.80;99.90;;;;;;4917522;29;20036;-72
2023/03/05 04:01:10;;;;;;;16.63;13.27;;;5.80;99.90;;;;;;4932240;28;20039;-72
2023/03/05 04:03:37;;;;;;;16.93;12.77;;;5.80;99.90;;;;;;4935944;29;20489;-71
2023/03/05 04:06:03;;;;;;;17.10;13.40;;;5.90;99.90;;;;;;4919873;29;20067;-72
2023/03/05 04:08:29;;;;;;;17.77;14.00;;;5.90;99.90;;;;;;4937200;29;20054;-72
2023/03/05 04:10:55;;;;;;;19.13;13.37;;;6.00;99.90;;;;;;4934143;29;20398;-72
2023/03/05 04:13:21;;;;;;;16.47;13.13;;;6.10;99.90;;;;;;4947064;29;20039;-72
2023/03/05 04:15:47;;;;;;;18.33;13.17;;;6.10;99.90;;;;;;4936773;28;20062;-72
2023/03/05 04:18:13;;;;;;;18.03;13.33;;;6.00;99.90;;;;;;4942553;29;20098;-72
2023/03/05 04:20:39;;;;;;;19.63;13.37;;;5.90;99.90;;;;;;4941334;29;20035;-72
2023/03/05 04:23:05;;;;;;;18.77;13.33;;;5.90;99.90;;;;;;4937035;29;20038;-72
2023/03/05 04:25:32;;;;;;;19.03;13.03;;;6.00;99.90;;;;;;4937013;29;20032;-73
2023/03/05 04:27:58;;;;;;;15.73;12.50;;;6.00;99.90;;;;;;4936389;29;20039;-73
2023/03/05 04:30:24;;;;;;;17.17;13.00;;;6.00;99.90;;;;;;4935249;28;20051;-72
2023/03/05 04:32:50;;;;;;;18.23;13.23;;;6.00;99.90;;;;;;4935166;29;20453;-72
2023/03/05 04:35:16;;;;;;;18.30;13.23;;;5.90;99.90;;;;;;4919869;29;20043;-72
2023/03/05 04:37:42;;;;;;;18.83;12.67;;;5.90;99.90;;;;;;4934444;29;20035;-72
2023/03/05 04:40:09;;;;;;;17.13;13.43;;;5.90;99.90;;;;;;4932321;29;20039;-72
2023/03/05 04:42:35;;;;;;;18.83;14.00;;;5.80;99.90;;;;;;4935284;29;20028;-72
2023/03/05 04:45:01;;;;;;;18.90;14.17;;;5.90;99.90;;;;;;4935239;29;20035;-72
2023/03/05 04:47:27;;;;;;;21.50;14.57;;;6.00;99.90;;;;;;4935469;28;20057;-73
2023/03/05 04:49:53;;;;;;;19.40;14.33;;;6.00;99.90;;;;;;4934026;29;20043;-72
2023/03/05 04:52:20;;;;;;;19.00;14.47;;;6.10;99.90;;;;;;4935332;29;20043;-72
2023/03/05 04:54:46;;;;;;;19.17;14.20;;;6.10;99.90;;;;;;4936337;29;20035;-72
2023/03/05 04:57:12;;;;;;;17.40;13.70;;;6.10;99.90;;;;;;4918726;29;20048;-72
2023/03/05 04:59:38;;;;;;;19.80;14.23;;;5.90;99.90;;;;;;4930545;29;20046;-72
2023/03/05 05:02:04;;;;;;;17.27;13.73;;;6.00;99.90;;;;;;4933150;28;20039;-72
2023/03/05 05:04:30;;;;;;;19.97;14.07;;;6.00;99.90;;;;;;4934904;29;20039;-73
2023/03/05 05:06:57;;;;;;;21.43;14.30;;;6.20;99.90;;;;;;4918553;29;20461;-72
2023/03/05 05:09:23;;;;;;;21.50;15.17;;;6.30;99.90;;;;;;4933186;29;20052;-73
2023/03/05 05:11:49;;;;;;;20.43;14.03;;;6.10;99.90;;;;;;4922058;29;20023;-72
2023/03/05 05:14:16;;;;;;;22.80;14.83;;;6.10;99.90;;;;;;4936009;29;20032;-72
2023/03/05 05:16:42;;;;;;;19.90;14.87;;;6.10;99.90;;;;;;4935273;28;20042;-73
2023/03/05 05:19:08;;;;;;;23.70;14.13;;;6.30;99.90;;;;;;4949135;29;20036;-72
2023/03/05 05:21:34;;;;;;;18.03;13.87;;;6.30;99.90;;;;;;4918629;29;20048;-72
2023/03/05 05:24:00;;;;;;;20.97;15.33;;;6.40;99.90;;;;;;4929857;29;20396;-72
2023/03/05 05:26:26;;;;;;;20.07;14.60;;;6.40;99.90;;;;;;4934606;29;20031;-72
2023/03/05 05:28:52;;;;;;;18.47;15.37;;;6.50;99.90;;;;;;4935622;28;20070;-73
2023/03/05 05:31:18;;;;;;;19.87;14.83;;;6.50;99.90;;;;;;4930777;28;20043;-73
2023/03/05 05:33:45;;;;;;;22.17;15.03;;;6.60;99.90;;;;;;4933670;29;20052;-73
2023/03/05 05:36:13;;;;;;;22.77;15.40;;;6.50;99.90;;;;;;4933758;29;20035;-73
2023/03/05 05:38:39;;;;;;;23.40;15.60;;;6.50;99.90;;;;;;4934586;29;20027;-72
2023/03/05 05:41:08;;;;;;;21.47;15.67;;;6.40;99.90;;;;;;4918228;29;20038;-73
2023/03/05 05:43:34;;;;;;;24.60;16.17;;;6.40;99.90;;;;;;4934324;29;20036;-72
2023/03/05 05:46:04;;;;;;;23.10;15.70;;;6.20;99.90;;;;;;4932439;28;20039;-72
2023/03/05 05:48:31;;;;;;;18.73;14.90;;;6.20;99.90;;;;;;4918889;29;20047;-73
2023/03/05 05:50:57;;;;;;;20.67;16.10;;;6.10;99.90;;;;;;4917956;29;20035;-72
2023/03/05 05:53:24;;;;;;;23.97;16.90;;;6.00;99.90;;;;;;4918510;29;20031;-72
2023/03/05 05:55:50;;;;;;;21.63;16.73;;;6.10;99.90;;;;;;4918455;29;20051;-72
2023/03/05 05:58:16;;;;;;;22.77;15.50;;;6.10;99.90;;;;;;4918627;29;20028;-72
2023/03/05 06:00:43;;;;;;;21.23;15.93;;;6.20;99.90;;;;;;4931855;28;20047;-72
2023/03/05 06:03:09;;;;;;;21.67;15.67;;;6.20;99.90;;;;;;4934080;29;20028;-72
2023/03/05 06:05:35;;;;;;;26.63;16.17;;;6.20;99.90;;;;;;4934110;29;20393;-73
2023/03/05 06:08:01;;;;;;;21.63;15.90;;;6.40;99.90;;;;;;4933650;28;20056;-72
2023/03/05 06:10:27;;;;;;;22.00;14.87;;;6.50;99.90;;;;;;4933532;29;20051;-72
2023/03/05 06:12:53;;;;;;;24.93;16.13;;;6.50;99.90;;;;;;4947475;29;20035;-72
2023/03/05 06:15:19;;;;;;;21.70;16.03;;;6.50;99.90;;;;;;4952455;28;20477;-72
2023/03/05 06:17:46;;;;;;;18.60;15.00;;;6.30;99.90;;;;;;4954304;29;20042;-72
2023/03/05 06:20:12;;;;;;;23.33;15.83;;;6.20;99.90;;;;;;4946978;29;20035;-72
2023/03/05 06:22:39;;;;;;;21.17;16.03;;;6.10;99.90;;;;;;4933697;29;20803;-72
2023/03/05 06:25:06;;;;;;;22.13;16.20;;;6.20;99.90;;;;;;4935145;29;20031;-73
2023/03/05 06:27:33;;;;;;;25.57;15.97;;;6.30;99.90;;;;;;4933711;29;20473;-73
2023/03/05 06:30:00;;;;;;;22.60;16.97;;;6.20;99.90;;;;;;4932747;29;20039;-73
2023/03/05 06:32:26;;;;;;;24.13;16.83;;;6.10;99.90;;;;;;4917546;29;20039;-72
2023/03/05 06:34:52;;;;;;;19.57;15.10;;;6.10;99.90;;;;;;4914171;29;20040;-72
2023/03/05 06:37:18;;;;;;;24.27;16.07;;;6.10;99.90;;;;;;4922479;29;20039;-72
2023/03/05 06:39:44;;;;;;;24.07;16.10;;;6.10;99.90;;;;;;4933114;29;20396;-72
2023/03/05 06:42:10;;;;;;;19.50;14.30;;;6.00;99.90;;;;;;4935069;29;20032;-72
2023/03/05 06:44:40;;;;;;;21.13;15.53;;;5.90;99.90;;;;;;4934609;29;20031;-72
2023/03/05 06:47:08;;;;;;;18.30;14.80;;;5.90;99.90;;;;;;4933395;29;20047;-73
2023/03/05 06:49:34;;;;;;;23.13;15.87;;;5.90;99.90;;;;;;4934218;29;20039;-73
2023/03/05 06:52:00;;;;;;;22.13;16.10;;;5.90;99.90;;;;;;4933070;29;20036;-72
2023/03/05 06:54:26;;;;;;;19.80;15.90;;;5.80;99.90;;;;;;4933783;29;20036;-72
2023/03/05 06:56:52;;;;;;;21.80;15.20;;;5.80;99.90;;;;;;4918002;29;20027;-72
2023/03/05 06:59:20;;;;;;;25.87;15.57;;;5.80;99.90;;;;;;4937269;29;20047;-72
2023/03/05 07:01:46;;;;;;;19.70;14.53;;;5.80;99.90;;;;;;4936286;28;20511;-72
2023/03/05 07:04:13;;;;;;;24.70;15.37;;;5.80;99.90;;;;;;4921439;29;20465;-75
2023/03/05 07:06:39;;;;;;;22.87;15.50;;;5.80;99.90;;;;;;4938456;29;20035;-73
2023/03/05 07:09:05;;;;;;;17.60;13.93;;;6.00;99.90;;;;;;4921230;29;20051;-73
2023/03/05 07:11:32;;;;;;;21.27;15.43;;;5.90;99.90;;;;;;4938366;29;20035;-73
2023/03/05 07:13:58;;;;;;;25.13;14.23;;;5.90;99.90;;;;;;4940258;29;20035;-73
2023/03/05 07:16:29;;;;;;;19.40;13.00;;;5.80;99.90;;;;;;4956995;28;20038;-73
2023/03/05 07:18:56;;;;;;;;;;;5.70;99.90;;;;;;4940864;29;20023;-73
2023/03/05 07:21:23;;;;;;;19.20;13.47;;;5.70;99.90;;;;;;4939484;29;19910;-73
2023/03/05 07:23:51;;;;;;;21.27;14.30;;;5.80;99.90;;;;;;4921135;29;20031;-74
2023/03/05 07:26:18;;;;;;;21.40;13.40;;;5.70;99.90;;;;;;4945598;29;20023;-73
2023/03/05 07:28:44;;;;;;;22.30;14.53;;;5.70;99.90;;;;;;4946376;28;20051;-73
2023/03/05 07:31:15;;;;;;;22.97;15.20;;;5.70;99.90;;;;;;4919662;29;20031;-73
2023/03/05 07:33:41;;;;;;;23.17;14.07;;;5.80;99.90;;;;;;4935263;29;20031;-73
2023/03/05 07:36:08;;;;;;;23.40;13.90;;;5.80;99.90;;;;;;4952983;29;20032;-74
2023/03/05 07:38:34;;;;;;;19.27;13.57;;;5.80;99.90;;;;;;4903926;29;20524;-73
2023/03/05 07:41:04;;;;;;;21.93;14.23;;;5.90;99.90;;;;;;4930728;29;20512;-73
2023/03/05 07:43:30;;;;;;;22.00;14.70;;;5.90;99.90;;;;;;4914956;29;20028;-74
2023/03/05 07:45:56;;;;;;;25.67;15.47;;;5.80;99.90;;;;;;4936873;28;20039;-73
2023/03/05 07:48:22;;;;;;;24.00;15.47;;;6.00;99.90;;;;;;4936617;29;20039;-73
2023/03/05 07:50:49;;;;;;;26.03;14.83;;;6.10;99.90;;;;;;4920808;29;20046;-73
2023/03/05 07:53:15;;;;;;;19.07;13.50;;;6.20;99.90;;;;;;4937177;29;20027;-74
2023/03/05 07:55:45;;;;;;;22.53;14.67;;;6.10;99.90;;;;;;4929709;29;20036;-74
2023/03/05 07:58:11;;;;;;;25.10;15.67;;;6.00;99.90;;;;;;4925811;29;20092;-73
2023/03/05 08:00:37;;;;;;;21.03;15.23;;;6.00;99.90;;;;;;4937365;28;20036;-73
2023/03/05 08:03:03;;;;;;;24.73;15.93;;;6.00;99.90;;;;;;4913106;29;20044;-73
2023/03/05 08:05:30;;;;;;;22.17;15.03;;;6.00;99.90;;;;;;4936105;29;20492;-74
2023/03/05 08:07:56;;;;;;;20.00;14.70;;;6.10;99.90;;;;;;4928892;29;20493;-75
2023/03/05 08:10:22;;;;;;;31.43;20.67;;;6.20;99.90;;;;;;4910106;29;20048;-74
2023/03/05 08:12:48;;;;;;;23.20;16.40;;;6.20;99.90;;;;;;4908477;29;20040;-73
2023/03/05 08:15:14;;;;;;;24.10;15.23;;;6.30;99.90;;;;;;4907178;28;20043;-73
2023/03/05 08:17:40;;;;;;;26.63;17.63;;;6.30;99.90;;;;;;4935691;29;20035;-74
2023/03/05 08:20:10;;;;;;;22.80;15.67;;;6.30;99.90;;;;;;4933379;28;20499;-74
2023/03/05 08:22:36;;;;;;;21.70;14.97;;;6.40;99.90;;;;;;4935783;29;20389;-74
2023/03/05 08:25:03;;;;;;;21.97;14.93;;;6.30;99.90;;;;;;4935227;29;20032;-73
2023/03/05 08:27:30;;;;;;;20.33;14.43;;;6.30;99.90;;;;;;4919845;29;20402;-74
2023/03/05 08:29:56;;;;;;;23.47;15.00;;;6.30;99.90;;;;;;4935341;29;20040;-74
2023/03/05 08:32:22;;;;;;;22.40;15.23;;;6.40;99.90;;;;;;4941254;28;20035;-74
2023/03/05 08:34:48;;;;;;;21.70;14.87;;;6.40;99.90;;;;;;4934743;29;20146;-74
2023/03/05 08:37:14;;;;;;;26.63;16.30;;;6.40;99.90;;;;;;4919511;29;20043;-74
2023/03/05 08:39:40;;;;;;;22.97;13.57;;;6.40;99.90;;;;;;4934895;29;20517;-74
2023/03/05 08:42:07;;;;;;;18.80;12.67;;;6.40;99.90;;;;;;4935484;29;20392;-74
2023/03/05 08:44:33;;;;;;;23.23;13.60;;;6.40;99.90;;;;;;4936455;29;20031;-74
2023/03/05 08:46:59;;;;;;;22.92;15.10;;;6.40;99.90;;;;;;4934533;28;20036;-74
2023/03/05 08:49:26;;;;;;;23.37;14.83;;;6.50;99.90;;;;;;4930224;29;20044;-75
2023/03/05 08:51:52;;;;;;;17.80;14.27;;;6.50;99.90;;;;;;4935875;29;20109;-74
2023/03/05 08:54:18;;;;;;;20.25;14.35;;;6.60;99.90;;;;;;4943775;29;20451;-73
2023/03/05 08:56:44;;;;;;;20.50;13.97;;;6.60;99.90;;;;;;4937975;29;20039;-74
2023/03/05 08:59:10;;;;;;;21.55;13.88;;;6.60;99.90;;;;;;4949823;29;20468;-74
2023/03/05 09:01:37;;;;;;;19.27;14.27;;;6.60;99.90;;;;;;4933532;28;20096;-75
2023/03/05 09:04:03;;;;;;;16.80;12.57;;;6.60;99.90;;;;;;4931141;29;20588;-74
2023/03/05 09:06:29;;;;;;;18.00;10.45;;;6.60;99.90;;;;;;4932825;29;20038;-74
2023/03/05 09:08:55;;;;;;;10.27;7.60;;;6.60;99.90;;;;;;4916845;29;20531;-73
2023/03/05 09:11:21;;;;;;;18.93;12.03;;;6.60;99.90;;;;;;4944438;29;20053;-74
2023/03/05 09:13:47;;;;;;;22.63;14.63;;;6.60;99.90;;;;;;4953742;29;20366;-75
2023/03/05 09:16:15;;;;;;;18.55;12.27;;;6.70;99.90;;;;;;4933948;28;20039;-74
2023/03/05 09:18:42;;;;;;;18.10;12.10;;;6.80;99.90;;;;;;4932102;29;20036;-74
2023/03/05 09:21:13;;;;;;;18.52;10.60;;;6.80;99.90;;;;;;4932672;29;20035;-74
2023/03/05 09:23:39;;;;;;;15.52;12.38;;;6.80;99.90;;;;;;4913259;29;20042;-74
2023/03/05 09:26:07;;;;;;;20.47;13.43;;;6.80;99.90;;;;;;4899526;29;20059;-75
2023/03/05 09:28:33;;;;;;;15.00;10.50;;;6.90;99.90;;;;;;4921836;29;20046;-76
2023/03/05 09:31:06;;;;;;;11.50;9.48;;;7.00;99.90;;;;;;4918258;28;20039;-75
2023/03/05 09:33:33;;;;;;;16.13;10.70;;;6.90;99.90;;;;;;4917675;29;20039;-75
2023/03/05 09:35:59;;;;;;;14.60;10.77;;;7.00;99.90;;;;;;4934164;29;20421;-75
2023/03/05 09:38:26;;;;;;;15.25;11.57;;;7.00;99.90;;;;;;4916698;29;20507;-76
2023/03/05 09:41:04;;;;;;;15.45;11.30;;;7.20;99.90;;;;;;4918046;29;20044;-75
2023/03/05 09:43:44;;;;;;;15.80;11.23;;;7.10;99.90;;;;;;4932835;29;20032;-73
2023/03/05 09:46:52;;;;;;;14.50;10.77;;;7.10;99.90;;;;;;4899507;29;20035;-73
2023/03/05 09:49:42;;;;;;;19.42;11.52;;;7.10;99.90;;;;;;4932308;29;20468;-73
2023/03/05 09:52:19;;;;;;;17.87;12.13;;;7.20;99.90;;;;;;4932375;29;20050;-73
2023/03/05 09:54:47;;;;;;;12.07;8.68;;;7.10;99.90;;;;;;4898062;29;20303;-73
2023/03/05 09:57:17;;;;;;;14.82;10.35;;;7.10;99.90;;;;;;4914597;29;20035;-73
2023/03/05 10:00:06;;;;;;;9.45;8.25;;;7.20;99.90;;;;;;4914784;29;20050;-73
2023/03/05 10:02:36;;;;;;;13.13;10.27;;;7.10;99.90;;;;;;4924204;29;20575;-73
2023/03/05 10:05:14;;;;;;;14.80;9.32;;;7.20;99.90;;;;;;4921763;29;20498;-73
2023/03/05 10:07:42;;;;;;;14.68;9.77;;;7.30;99.90;;;;;;4912566;29;20539;-73
2023/03/05 10:10:13;;;;;;;15.00;11.57;;;7.30;99.90;;;;;;4898579;29;20048;-73
2023/03/05 10:12:49;;;;;;;10.48;8.80;;;7.30;99.90;;;;;;4927914;29;20531;-74
2023/03/05 10:15:37;;;;;;;8.27;7.43;;;7.40;99.90;;;;;;4896750;29;20043;-74
2023/03/05 10:18:25;;;;;;;11.50;9.48;;;7.60;99.90;;;;;;4917006;29;20031;-73
2023/03/05 10:21:24;;;;;;;10.90;7.63;;;7.70;99.90;;;;;;4931014;29;20046;-75
2023/03/05 10:24:14;;;;;;;12.13;9.55;;;7.70;99.90;;;;;;4874741;29;20045;-75
2023/03/05 10:26:43;;;;;;;8.65;6.35;;;7.70;99.90;;;;;;4873447;29;20045;-76
2023/03/05 10:29:15;;;;;;;7.72;6.53;;;7.60;99.90;;;;;;4859537;29;20045;-73
2023/03/05 10:32:05;;;;;;;12.93;9.90;;;7.50;99.90;;;;;;4877433;29;20564;-73
2023/03/05 10:34:56;;;;;;;11.63;9.32;;;7.60;99.90;;;;;;4860882;29;20049;-73
2023/03/05 10:37:49;;;;;;;11.27;9.00;;;7.60;99.90;;;;;;4872501;29;20048;-73
2023/03/05 10:40:40;;;;;;;17.77;12.07;;;7.50;99.90;;;;;;4862780;29;20048;-73
2023/03/05 10:43:36;;;;;;;13.73;10.00;;;7.60;99.90;;;;;;4863805;29;20081;-75
2023/03/05 10:46:02;;;;;;;24.95;13.13;;;7.70;99.90;;;;;;4863459;29;20033;-75
2023/03/05 10:48:43;;;;;;;15.40;12.25;;;7.70;99.90;;;;;;4864405;29;20060;-75
2023/03/05 10:51:13;;;;;;;12.52;9.52;;;7.80;99.90;;;;;;4846639;29;20050;-76
2023/03/05 10:53:53;;;;;;;10.27;7.47;;;7.90;99.90;;;;;;4872939;29;20033;-80
2023/03/05 10:56:21;;;;;;;17.02;12.13;;;8.00;99.90;;;;;;4857968;29;20041;-78
2023/03/05 10:58:47;;;;;;;18.73;12.40;;;8.10;99.90;;;;;;4871951;29;20043;-79
2023/03/05 11:01:22;;;;;;;15.27;11.15;;;8.20;99.90;;;;;;4920478;28;20028;-78
2023/03/05 11:04:25;;;;;;;16.40;12.73;;;8.10;99.90;;;;;;4939740;29;20440;-78
2023/03/05 11:06:51;;;;;;;9.07;7.85;;;8.20;99.90;;;;;;4940070;28;20047;-78
2023/03/05 11:09:28;;;;;;;12.90;10.60;;;8.10;99.90;;;;;;4920694;29;20043;-78
2023/03/05 11:12:07;;;;;;;22.10;16.10;;;8.00;99.90;;;;;;4943835;29;20495;-79
2023/03/05 11:14:34;;;;;;;16.38;11.38;;;7.90;99.90;;;;;;4956997;29;20499;-79
2023/03/05 11:17:02;;;;;;;12.82;10.50;;;8.00;99.90;;;;;;4937559;28;20031;-78
2023/03/05 11:19:32;;;;;;;10.90;8.65;;;8.10;99.90;;;;;;4936283;29;20035;-78
2023/03/05 11:22:31;;;;;;;10.93;9.35;;;8.10;99.90;;;;;;4937526;29;20389;-79
2023/03/05 11:25:14;;;;;;;9.57;6.45;;;8.00;99.90;;;;;;4934899;29;20027;-79
2023/03/05 11:27:52;;;;;;;16.17;11.65;;;8.00;99.90;;;;;;4920145;29;20055;-79
2023/03/05 11:30:27;;;;;;;11.75;9.50;;;8.10;99.90;;;;;;4935330;28;20048;-78
2023/03/05 11:33:06;;;;;;;14.85;10.80;;;8.20;99.90;;;;;;4935269;29;20434;-79
2023/03/05 11:35:34;;;;;;;13.98;10.43;;;8.20;99.90;;;;;;4927732;29;20047;-78
2023/03/05 11:38:03;;;;;;;14.90;12.00;;;8.30;99.90;;;;;;4926933;29;20031;-79
2023/03/05 11:40:31;;;;;;;7.55;6.88;;;8.50;99.90;;;;;;4937628;29;20050;-78
2023/03/05 11:42:59;;;;;;;16.42;11.93;;;8.50;99.90;;;;;;4933563;29;20031;-79
2023/03/05 11:45:25;;;;;;;15.82;12.30;;;8.50;99.90;;;;;;4934820;28;20043;-79
2023/03/05 11:47:57;;;;;;;13.23;10.05;;;8.50;99.90;;;;;;4919042;29;20039;-79
2023/03/05 11:50:25;;;;;;;11.57;9.20;;;8.60;99.90;;;;;;4923617;29;20130;-79
2023/03/05 11:53:02;;;;;;;17.98;12.20;;;8.50;99.90;;;;;;4900358;29;20040;-79
2023/03/05 11:55:45;;;;;;;16.20;12.18;;;8.40;99.90;;;;;;4920805;29;20028;-79
2023/03/05 11:58:33;;;;;;;24.42;16.02;;;8.40;99.90;;;;;;4902789;29;20028;-79
2023/03/05 12:00:59;;;;;;;20.63;14.23;;;8.40;99.90;;;;;;4931997;28;20032;-78
2023/03/05 12:03:34;;;;;;;19.05;14.32;;;8.40;99.90;;;;;;4937554;29;20031;-79
2023/03/05 12:06:17;;;;;;;18.10;12.98;;;8.40;99.90;;;;;;4919763;29;20032;-79
2023/03/05 12:08:54;;;;;;;16.90;12.35;;;8.50;99.90;;;;;;4934507;29;20147;-78
2023/03/05 12:11:24;;;;;;;16.90;12.38;;;8.50;99.90;;;;;;4919084;29;20059;-79
2023/03/05 12:13:53;;;;;;;18.17;12.85;;;8.60;99.90;;;;;;4920261;28;20484;-79
2023/03/05 12:16:23;;;;;;;12.38;11.07;;;8.70;99.90;;;;;;4934648;28;20067;-78
2023/03/05 12:19:29;;;;;;;10.50;8.18;;;8.80;99.90;;;;;;4936009;29;20468;-78
2023/03/05 12:21:55;;;;;;;15.38;10.57;;;9.00;99.90;;;;;;4934078;29;20032;-79
2023/03/05 12:24:21;;;;;;;10.30;8.13;;;9.00;99.90;;;;;;4919727;29;20115;-78
2023/03/05 12:26:58;;;;;;;13.57;10.27;;;8.90;99.90;;;;;;4935009;29;20035;-79
2023/03/05 12:29:37;;;;;;;12.82;11.48;;;8.80;99.90;;;;;;4928078;29;20388;-78
2023/03/05 12:32:04;;;;;;;13.77;10.82;;;8.90;99.90;;;;;;4934144;28;20050;-78
2023/03/05 12:34:39;;;;;;;14.32;11.82;;;8.90;99.90;;;;;;4919379;29;20409;-78
2023/03/05 12:37:12;;;;;;;16.83;11.38;;;9.00;99.90;;;;;;4934980;29;20373;-78
2023/03/05 12:39:46;;;;;;;15.40;12.00;;;9.10;99.90;;;;;;4935390;29;20385;-79
2023/03/05 12:42:27;;;;;;;15.95;12.10;;;9.30;99.90;;;;;;4934749;29;20032;-79
2023/03/05 12:45:08;;;;;;;11.18;9.93;;;9.40;99.90;;;;;;4934916;29;20039;-79
2023/03/05 12:47:35;;;;;;;16.50;12.98;;;9.20;99.90;;;;;;4933575;28;20047;-79